createdAt,value
2022-07-26T00:00:13.485Z,0.00
2022-07-26T00:01:13.698Z,0.00
2022-07-26T00:02:18.267Z,0.00
2022-07-26T00:03:13.974Z,0.00
2022-07-26T00:04:14.136Z,0.00
2022-07-26T00:05:14.296Z,0.00
2022-07-26T00:06:14.456Z,0.00
2022-07-26T00:07:14.616Z,0.00
2022-07-26T00:08:14.779Z,0.00
2022-07-26T00:09:14.938Z,0.00
2022-07-26T00:10:15.105Z,0.00
2022-07-26T00:11:15.257Z,0.00
2022-07-26T00:12:15.460Z,0.00
2022-07-26T00:13:15.636Z,0.00
2022-07-26T00:14:15.846Z,0.00
2022-07-26T00:15:15.997Z,0.00
2022-07-26T00:16:16.288Z,0.00
2022-07-26T00:17:16.367Z,0.00
2022-07-26T00:18:16.529Z,0.00
2022-07-26T00:19:16.696Z,0.00
2022-07-26T00:20:16.858Z,0.00
2022-07-26T00:21:17.020Z,0.00
2022-07-26T00:22:17.178Z,0.00
2022-07-26T00:23:17.327Z,0.00
2022-07-26T00:24:17.538Z,0.00
2022-07-26T00:25:17.696Z,0.00
2022-07-26T00:26:17.887Z,0.00
2022-07-26T00:27:18.047Z,0.00
2022-07-26T00:28:18.209Z,0.00
2022-07-26T00:29:18.386Z,0.00
2022-07-26T00:30:18.558Z,0.00
2022-07-26T00:31:18.830Z,0.00
2022-07-26T00:32:18.898Z,0.00
2022-07-26T00:33:19.061Z,0.00
2022-07-26T00:34:19.236Z,0.00
2022-07-26T00:35:19.390Z,0.00
2022-07-26T00:36:19.548Z,0.00
2022-07-26T00:37:20.473Z,0.00
2022-07-26T00:38:19.870Z,0.00
2022-07-26T00:39:20.040Z,0.00
2022-07-26T00:40:20.206Z,0.00
2022-07-26T00:41:20.359Z,0.00
2022-07-26T00:42:20.558Z,0.00
2022-07-26T00:43:20.709Z,0.00
2022-07-26T00:44:20.921Z,0.00
2022-07-26T00:45:21.079Z,0.00
2022-07-26T00:46:21.416Z,0.00
2022-07-26T00:47:21.413Z,0.00
2022-07-26T00:48:21.625Z,0.00
2022-07-26T00:49:21.879Z,0.00
2022-07-26T00:50:21.940Z,0.00
2022-07-26T00:51:22.100Z,0.00
2022-07-26T00:52:22.272Z,0.00
2022-07-26T00:53:22.431Z,0.00
2022-07-26T00:54:22.611Z,0.00
2022-07-26T00:55:22.770Z,0.00
2022-07-26T00:56:22.932Z,0.00
2022-07-26T00:57:23.091Z,0.00
2022-07-26T00:58:23.252Z,0.00
2022-07-26T00:59:23.422Z,0.00
2022-07-26T01:00:23.592Z,0.00
2022-07-26T01:01:23.828Z,0.00
2022-07-26T01:02:24.007Z,0.00
2022-07-26T01:03:24.084Z,0.00
2022-07-26T01:04:25.283Z,0.00
2022-07-26T01:05:24.434Z,0.00
2022-07-26T01:06:27.347Z,0.00
2022-07-26T01:07:24.763Z,0.00
2022-07-26T01:08:24.962Z,0.00
2022-07-26T01:09:25.140Z,0.00
2022-07-26T01:10:25.305Z,0.00
2022-07-26T01:11:25.453Z,0.00
2022-07-26T01:12:25.624Z,0.00
2022-07-26T01:13:25.773Z,0.00
2022-07-26T01:14:25.984Z,0.00
2022-07-26T01:15:26.142Z,0.00
2022-07-26T01:16:26.351Z,0.00
2022-07-26T01:17:26.494Z,0.00
2022-07-26T01:18:26.654Z,0.00
2022-07-26T01:19:26.824Z,0.00
2022-07-26T01:20:26.994Z,0.00
2022-07-26T01:21:27.155Z,0.00
2022-07-26T01:22:27.315Z,0.00
2022-07-26T01:23:27.474Z,0.00
2022-07-26T01:24:27.644Z,0.00
2022-07-26T01:25:27.804Z,0.00
2022-07-26T01:26:27.974Z,0.00
2022-07-26T01:27:33.552Z,0.00
2022-07-26T01:28:29.294Z,0.00
2022-07-26T01:29:36.128Z,0.00
2022-07-26T01:30:29.636Z,0.00
2022-07-26T01:31:28.863Z,0.00
2022-07-26T01:32:28.994Z,0.00
2022-07-26T01:33:29.145Z,0.00
2022-07-26T01:34:29.355Z,0.00
2022-07-26T01:35:29.513Z,0.00
2022-07-26T01:36:29.706Z,0.00
2022-07-26T01:37:29.865Z,0.00
2022-07-26T01:38:30.064Z,0.00
2022-07-26T01:39:30.229Z,0.00
2022-07-26T01:40:30.388Z,0.00
2022-07-26T01:41:38.169Z,0.00
2022-07-26T01:42:31.726Z,0.00
2022-07-26T01:43:30.907Z,0.00
2022-07-26T01:44:31.116Z,0.00
2022-07-26T01:45:31.319Z,0.00
2022-07-26T01:46:31.457Z,0.00
2022-07-26T01:47:31.617Z,0.00
2022-07-26T01:48:31.845Z,0.00
2022-07-26T01:49:31.946Z,0.00
2022-07-26T01:50:32.107Z,0.00
2022-07-26T01:51:32.267Z,0.00
2022-07-26T01:52:32.427Z,0.00
2022-07-26T01:53:32.586Z,0.00
2022-07-26T01:54:32.767Z,0.00
2022-07-26T01:55:32.921Z,0.00
2022-07-26T01:56:33.091Z,0.00
2022-07-26T01:57:33.257Z,0.00
2022-07-26T01:58:33.409Z,0.00
2022-07-26T01:59:33.577Z,0.00
2022-07-26T02:00:33.738Z,0.00
2022-07-26T02:01:38.353Z,0.00
2022-07-26T02:02:35.313Z,0.00
2022-07-26T02:03:34.256Z,0.00
2022-07-26T02:04:34.427Z,0.00
2022-07-26T02:05:34.591Z,0.00
2022-07-26T02:06:34.748Z,0.00
2022-07-26T02:07:34.909Z,0.00
2022-07-26T02:08:35.098Z,0.00
2022-07-26T02:09:39.541Z,0.00
2022-07-26T02:10:35.458Z,0.00
2022-07-26T02:11:35.619Z,0.00
2022-07-26T02:12:35.778Z,0.00
2022-07-26T02:13:35.939Z,0.00
2022-07-26T02:14:36.109Z,0.00
2022-07-26T02:15:36.290Z,0.00
2022-07-26T02:16:36.430Z,0.00
2022-07-26T02:17:36.589Z,0.00
2022-07-26T02:18:36.750Z,0.00
2022-07-26T02:19:36.931Z,0.00
2022-07-26T02:20:37.089Z,0.00
2022-07-26T02:21:37.250Z,0.00
2022-07-26T02:22:37.413Z,0.00
2022-07-26T02:23:41.281Z,0.00
2022-07-26T02:24:37.747Z,0.00
2022-07-26T02:25:37.902Z,0.00
2022-07-26T02:26:38.071Z,0.00
2022-07-26T02:27:38.222Z,0.00
2022-07-26T02:28:38.432Z,0.00
2022-07-26T02:29:38.606Z,0.00
2022-07-26T02:30:39.431Z,0.00
2022-07-26T02:31:38.954Z,0.00
2022-07-26T02:32:39.098Z,0.00
2022-07-26T02:33:39.251Z,0.00
2022-07-26T02:34:39.431Z,0.00
2022-07-26T02:35:39.592Z,0.00
2022-07-26T02:36:39.760Z,0.00
2022-07-26T02:37:43.534Z,0.00
2022-07-26T02:38:40.109Z,0.00
2022-07-26T02:39:40.284Z,4.00
2022-07-26T02:40:40.443Z,4.00
2022-07-26T02:41:40.602Z,4.00
2022-07-26T02:42:40.763Z,4.00
2022-07-26T02:43:40.925Z,0.00
2022-07-26T02:44:41.101Z,4.00
2022-07-26T02:45:41.252Z,4.00
2022-07-26T02:46:41.555Z,4.00
2022-07-26T02:47:41.632Z,4.00
2022-07-26T02:48:41.825Z,4.00
2022-07-26T02:49:41.973Z,8.00
2022-07-26T02:50:42.133Z,8.00
2022-07-26T02:51:42.284Z,8.00
2022-07-26T02:52:42.465Z,8.00
2022-07-26T02:53:42.624Z,12.00
2022-07-26T02:54:42.823Z,12.00
2022-07-26T02:55:42.964Z,12.00
2022-07-26T02:56:43.154Z,16.00
2022-07-26T02:57:46.099Z,16.00
2022-07-26T02:58:43.511Z,20.00
2022-07-26T02:59:43.694Z,24.00
2022-07-26T03:00:43.882Z,28.00
2022-07-26T03:01:44.111Z,28.00
2022-07-26T03:02:44.291Z,36.00
2022-07-26T03:03:50.127Z,36.00
2022-07-26T03:04:45.603Z,40.00
2022-07-26T03:05:44.757Z,44.00
2022-07-26T03:06:44.945Z,52.00
2022-07-26T03:07:45.125Z,56.00
2022-07-26T03:08:45.305Z,64.00
2022-07-26T03:09:45.474Z,64.00
2022-07-26T03:10:45.625Z,72.00
2022-07-26T03:11:45.805Z,80.00
2022-07-26T03:12:45.986Z,88.00
2022-07-26T03:13:46.169Z,96.00
2022-07-26T03:14:46.375Z,104.00
2022-07-26T03:15:46.553Z,112.00
2022-07-26T03:16:46.675Z,120.00
2022-07-26T03:17:46.825Z,128.00
2022-07-26T03:18:47.017Z,136.00
2022-07-26T03:19:47.226Z,144.00
2022-07-26T03:20:47.378Z,160.00
2022-07-26T03:21:47.566Z,172.00
2022-07-26T03:22:47.716Z,184.00
2022-07-26T03:23:47.908Z,196.00
2022-07-26T03:24:48.087Z,216.00
2022-07-26T03:25:48.237Z,232.00
2022-07-26T03:26:48.388Z,248.00
2022-07-26T03:27:48.587Z,268.00
2022-07-26T03:28:48.765Z,280.00
2022-07-26T03:29:48.956Z,292.00
2022-07-26T03:30:49.134Z,304.00
2022-07-26T03:31:49.265Z,316.00
2022-07-26T03:32:49.456Z,340.00
2022-07-26T03:33:49.651Z,368.00
2022-07-26T03:34:49.820Z,400.00
2022-07-26T03:35:49.967Z,440.00
2022-07-26T03:36:50.165Z,468.00
2022-07-26T03:37:50.307Z,492.00
2022-07-26T03:38:50.467Z,512.00
2022-07-26T03:39:50.667Z,552.00
2022-07-26T03:40:50.807Z,616.00
2022-07-26T03:41:50.998Z,668.00
2022-07-26T03:42:51.188Z,704.00
2022-07-26T03:43:51.377Z,740.00
2022-07-26T03:44:51.548Z,780.00
2022-07-26T03:45:54.478Z,816.00
2022-07-26T03:46:51.869Z,824.00
2022-07-26T03:47:52.059Z,848.00
2022-07-26T03:48:52.271Z,908.00
2022-07-26T03:49:52.418Z,972.00
2022-07-26T03:50:52.569Z,1044.00
2022-07-26T03:51:52.728Z,1120.00
2022-07-26T03:52:52.887Z,1148.00
2022-07-26T03:53:53.057Z,1156.00
2022-07-26T03:54:53.233Z,1172.00
2022-07-26T03:55:53.392Z,1196.00
2022-07-26T03:56:53.555Z,1236.00
2022-07-26T03:57:53.723Z,1280.00
2022-07-26T03:58:53.871Z,1340.00
2022-07-26T03:59:54.074Z,1368.00
2022-07-26T04:00:54.219Z,1364.00
2022-07-26T04:01:54.466Z,1348.00
2022-07-26T04:02:54.675Z,1360.00
2022-07-26T04:03:54.768Z,1460.00
2022-07-26T04:04:54.958Z,1580.00
2022-07-26T04:05:55.111Z,1616.00
2022-07-26T04:06:55.289Z,1616.00
2022-07-26T04:07:55.833Z,1628.00
2022-07-26T04:08:55.629Z,1732.00
2022-07-26T04:09:55.829Z,1764.00
2022-07-26T04:10:55.975Z,1620.00
2022-07-26T04:11:56.159Z,1496.00
2022-07-26T04:12:56.310Z,1456.00
2022-07-26T04:13:56.498Z,1532.00
2022-07-26T04:14:56.690Z,1652.00
2022-07-26T04:15:56.840Z,1692.00
2022-07-26T04:16:57.057Z,1744.00
2022-07-26T04:17:57.219Z,1840.00
2022-07-26T04:18:57.391Z,1960.00
2022-07-26T04:19:57.590Z,1912.00
2022-07-26T04:20:57.731Z,1908.00
2022-07-26T04:21:57.911Z,1912.00
2022-07-26T04:22:58.091Z,1940.00
2022-07-26T04:23:58.283Z,1992.00
2022-07-26T04:24:58.481Z,2080.00
2022-07-26T04:25:58.655Z,2156.00
2022-07-26T04:26:58.830Z,2276.00
2022-07-26T04:27:59.013Z,2340.00
2022-07-26T04:28:59.193Z,2384.00
2022-07-26T04:29:59.571Z,2440.00
2022-07-26T04:30:59.576Z,2464.00
2022-07-26T04:31:59.732Z,2484.00
2022-07-26T04:32:59.924Z,2524.00
2022-07-26T04:34:00.101Z,2596.00
2022-07-26T04:35:00.315Z,2692.00
2022-07-26T04:36:00.456Z,2832.00
2022-07-26T04:37:00.701Z,2944.00
2022-07-26T04:38:00.828Z,3036.00
2022-07-26T04:39:01.003Z,3164.00
2022-07-26T04:40:01.193Z,3268.00
2022-07-26T04:41:01.342Z,3356.00
2022-07-26T04:42:01.529Z,3404.00
2022-07-26T04:43:01.705Z,3412.00
2022-07-26T04:44:01.897Z,3416.00
2022-07-26T04:45:07.471Z,3436.00
2022-07-26T04:46:03.321Z,3544.00
2022-07-26T04:47:02.415Z,3616.00
2022-07-26T04:48:02.614Z,3840.00
2022-07-26T04:49:02.848Z,4004.00
2022-07-26T04:50:02.976Z,4196.00
2022-07-26T04:51:03.112Z,4240.00
2022-07-26T04:52:03.294Z,4332.00
2022-07-26T04:53:03.474Z,4348.00
2022-07-26T04:54:03.661Z,4208.00
2022-07-26T04:55:03.866Z,4080.00
2022-07-26T04:56:04.004Z,4092.00
2022-07-26T04:57:04.192Z,4112.00
2022-07-26T04:58:04.372Z,4196.00
2022-07-26T04:59:04.544Z,4296.00
2022-07-26T05:00:20.874Z,4364.00
2022-07-26T05:01:10.460Z,4324.00
2022-07-26T05:02:06.187Z,4316.00
2022-07-26T05:03:05.364Z,4428.00
2022-07-26T05:04:05.509Z,4404.00
2022-07-26T05:05:05.614Z,4272.00
2022-07-26T05:06:05.795Z,4160.00
2022-07-26T05:07:05.976Z,4140.00
2022-07-26T05:08:06.163Z,4112.00
2022-07-26T05:09:06.336Z,4048.00
2022-07-26T05:10:06.525Z,4064.00
2022-07-26T05:11:06.720Z,4180.00
2022-07-26T05:12:06.865Z,4104.00
2022-07-26T05:13:07.044Z,4356.00
2022-07-26T05:14:07.500Z,4904.00
2022-07-26T05:15:09.417Z,5820.00
2022-07-26T05:16:12.001Z,6472.00
2022-07-26T05:17:08.682Z,6580.00
2022-07-26T05:18:08.215Z,6540.00
2022-07-26T05:19:08.116Z,5852.00
2022-07-26T05:20:08.326Z,6584.00
2022-07-26T05:21:08.469Z,7640.00
2022-07-26T05:22:08.647Z,7472.00
2022-07-26T05:23:08.827Z,5860.00
2022-07-26T05:24:09.488Z,5600.00
2022-07-26T05:25:09.201Z,6032.00
2022-07-26T05:26:09.347Z,6532.00
2022-07-26T05:27:09.526Z,7428.00
2022-07-26T05:28:09.708Z,7776.00
2022-07-26T05:29:09.889Z,10796.00
2022-07-26T05:30:10.088Z,11064.00
2022-07-26T05:31:10.347Z,15040.00
2022-07-26T05:32:10.410Z,17408.00
2022-07-26T05:33:10.579Z,19072.00
2022-07-26T05:34:11.992Z,17952.00
2022-07-26T05:35:10.948Z,17536.00
2022-07-26T05:36:11.118Z,16960.00
2022-07-26T05:37:11.306Z,21280.00
2022-07-26T05:38:11.479Z,21536.00
2022-07-26T05:39:15.746Z,21184.00
2022-07-26T05:40:11.839Z,20192.00
2022-07-26T05:41:11.979Z,19936.00
2022-07-26T05:42:12.165Z,20224.00
2022-07-26T05:43:12.330Z,19488.00
2022-07-26T05:44:12.503Z,18752.00
2022-07-26T05:45:12.700Z,16768.00
2022-07-26T05:46:12.957Z,19328.00
2022-07-26T05:47:13.041Z,19840.00
2022-07-26T05:48:13.231Z,20320.00
2022-07-26T05:49:13.468Z,20288.00
2022-07-26T05:50:13.600Z,19904.00
2022-07-26T05:51:13.779Z,14272.00
2022-07-26T05:52:13.941Z,15648.00
2022-07-26T05:53:14.121Z,17184.00
2022-07-26T05:54:14.307Z,21984.00
2022-07-26T05:55:14.494Z,21056.00
2022-07-26T05:56:14.670Z,21536.00
2022-07-26T05:57:14.842Z,25184.00
2022-07-26T05:58:15.032Z,24160.00
2022-07-26T05:59:15.203Z,24416.00
2022-07-26T06:00:15.413Z,20352.00
2022-07-26T06:01:15.554Z,20160.00
2022-07-26T06:02:15.823Z,26400.00
2022-07-26T06:03:15.884Z,29088.00
2022-07-26T06:04:16.104Z,28928.00
2022-07-26T06:05:16.276Z,28928.00
2022-07-26T06:06:16.427Z,23104.00
2022-07-26T06:07:16.596Z,24960.00
2022-07-26T06:08:16.784Z,22208.00
2022-07-26T06:09:16.963Z,20576.00
2022-07-26T06:10:17.168Z,20384.00
2022-07-26T06:11:17.305Z,19712.00
2022-07-26T06:12:17.495Z,19232.00
2022-07-26T06:13:17.687Z,18912.00
2022-07-26T06:14:17.855Z,15988.00
2022-07-26T06:15:18.045Z,15636.00
2022-07-26T06:16:18.204Z,15792.00
2022-07-26T06:17:18.451Z,13172.00
2022-07-26T06:18:18.546Z,12656.00
2022-07-26T06:19:18.707Z,13880.00
2022-07-26T06:20:18.896Z,14596.00
2022-07-26T06:21:19.057Z,14876.00
2022-07-26T06:22:19.218Z,14812.00
2022-07-26T06:23:33.769Z,14816.00
2022-07-26T06:24:20.570Z,13848.00
2022-07-26T06:25:19.744Z,13572.00
2022-07-26T06:26:19.902Z,13652.00
2022-07-26T06:27:20.070Z,13304.00
2022-07-26T06:28:20.249Z,16100.00
2022-07-26T06:29:20.419Z,16672.00
2022-07-26T06:30:20.590Z,14816.00
2022-07-26T06:31:20.807Z,16116.00
2022-07-26T06:32:20.951Z,15200.00
2022-07-26T06:33:21.107Z,16980.00
2022-07-26T06:34:21.290Z,16460.00
2022-07-26T06:35:21.479Z,16780.00
2022-07-26T06:36:21.633Z,19872.00
2022-07-26T06:37:21.800Z,19456.00
2022-07-26T06:38:21.980Z,19712.00
2022-07-26T06:39:22.160Z,19744.00
2022-07-26T06:40:22.371Z,21792.00
2022-07-26T06:41:22.513Z,20832.00
2022-07-26T06:42:22.700Z,21120.00
2022-07-26T06:43:22.873Z,20928.00
2022-07-26T06:44:23.103Z,19744.00
2022-07-26T06:45:23.233Z,17824.00
2022-07-26T06:46:23.480Z,17696.00
2022-07-26T06:47:23.595Z,20768.00
2022-07-26T06:48:23.792Z,17760.00
2022-07-26T06:49:24.002Z,17248.00
2022-07-26T06:50:25.783Z,16376.00
2022-07-26T06:51:24.304Z,15832.00
2022-07-26T06:52:24.493Z,16480.00
2022-07-26T06:53:24.665Z,15288.00
2022-07-26T06:54:24.879Z,13512.00
2022-07-26T06:55:25.051Z,14256.00
2022-07-26T06:56:25.229Z,15644.00
2022-07-26T06:57:25.436Z,17072.00
2022-07-26T06:58:25.576Z,15468.00
2022-07-26T06:59:25.746Z,15212.00
2022-07-26T07:00:25.947Z,15564.00
2022-07-26T07:01:58.721Z,18784.00
2022-07-26T07:02:27.278Z,17856.00
2022-07-26T07:03:26.466Z,15764.00
2022-07-26T07:04:26.750Z,18240.00
2022-07-26T07:05:26.827Z,20512.00
2022-07-26T07:06:27.007Z,20064.00
2022-07-26T07:07:27.188Z,19296.00
2022-07-26T07:08:27.360Z,15740.00
2022-07-26T07:09:27.538Z,16920.00
2022-07-26T07:10:27.727Z,16916.00
2022-07-26T07:11:27.896Z,17536.00
2022-07-26T07:12:28.048Z,20416.00
2022-07-26T07:13:28.219Z,21440.00
2022-07-26T07:14:28.418Z,21792.00
2022-07-26T07:15:28.601Z,16928.00
2022-07-26T07:16:28.884Z,18464.00
2022-07-26T07:17:28.951Z,19552.00
2022-07-26T07:18:29.139Z,19872.00
2022-07-26T07:19:29.309Z,20960.00
2022-07-26T07:20:29.520Z,22528.00
2022-07-26T07:21:29.661Z,25024.00
2022-07-26T07:22:29.850Z,6760.00
2022-07-26T07:23:30.020Z,25312.00
2022-07-26T07:24:30.201Z,24512.00
2022-07-26T07:25:31.197Z,18624.00
2022-07-26T07:26:30.530Z,7740.00
2022-07-26T07:27:30.721Z,18624.00
2022-07-26T07:28:30.891Z,19968.00
2022-07-26T07:29:31.061Z,8480.00
2022-07-26T07:30:31.262Z,24160.00
2022-07-26T07:31:48.016Z,27488.00
2022-07-26T07:32:32.659Z,28032.00
2022-07-26T07:33:32.237Z,28256.00
2022-07-26T07:34:32.963Z,28160.00
2022-07-26T07:35:32.908Z,27904.00
2022-07-26T07:36:32.336Z,27776.00
2022-07-26T07:37:53.030Z,26336.00
2022-07-26T07:38:33.685Z,24704.00
2022-07-26T07:39:34.845Z,25536.00
2022-07-26T07:40:34.064Z,26528.00
2022-07-26T07:41:33.225Z,24832.00
2022-07-26T07:42:33.406Z,20704.00
2022-07-26T07:43:33.581Z,23904.00
2022-07-26T07:44:33.754Z,26176.00
2022-07-26T07:45:33.969Z,29024.00
2022-07-26T07:46:34.138Z,29920.00
2022-07-26T07:47:34.306Z,30720.00
2022-07-26T07:48:34.541Z,32736.00
2022-07-26T07:49:34.718Z,33088.00
2022-07-26T07:50:34.861Z,33248.00
2022-07-26T07:51:36.204Z,35584.00
2022-07-26T07:52:35.187Z,32448.00
2022-07-26T07:53:35.392Z,38208.00
2022-07-26T07:54:35.567Z,39200.00
2022-07-26T07:55:40.927Z,39904.00
2022-07-26T07:56:36.888Z,40736.00
2022-07-26T07:57:36.079Z,34144.00
2022-07-26T07:58:36.268Z,39104.00
2022-07-26T07:59:39.039Z,40448.00
2022-07-26T08:00:36.595Z,41408.00
2022-07-26T08:01:40.237Z,44384.00
2022-07-26T08:02:36.920Z,46080.00
2022-07-26T08:03:38.990Z,47648.00
2022-07-26T08:04:37.365Z,48000.00
2022-07-26T08:05:40.575Z,50592.00
2022-07-26T08:06:37.627Z,52864.00
2022-07-26T08:07:37.812Z,52544.00
2022-07-26T08:08:38.002Z,54624.00
2022-07-26T08:09:38.170Z,22752.00
2022-07-26T08:10:43.607Z,51488.00
2022-07-26T08:11:39.534Z,50816.00
2022-07-26T08:12:38.715Z,56832.00
2022-07-26T08:13:38.893Z,32736.00
2022-07-26T08:14:39.053Z,13800.00
2022-07-26T08:15:39.327Z,17312.00
2022-07-26T08:16:39.498Z,17760.00
2022-07-26T08:17:41.883Z,42592.00
2022-07-26T08:18:55.662Z,15416.00
2022-07-26T08:19:41.779Z,53024.00
2022-07-26T08:20:40.116Z,45664.00
2022-07-26T08:21:40.295Z,57152.00
2022-07-26T08:22:40.434Z,56576.00
2022-07-26T08:23:40.626Z,28000.00
2022-07-26T08:24:40.799Z,16072.00
2022-07-26T08:25:55.074Z,57824.00
2022-07-26T08:26:42.177Z,56768.00
2022-07-26T08:27:41.403Z,51072.00
2022-07-26T08:28:58.416Z,28896.00
2022-07-26T08:29:42.688Z,41760.00
2022-07-26T08:30:41.838Z,39136.00
2022-07-26T08:31:42.079Z,29984.00
2022-07-26T08:32:42.188Z,18432.00
2022-07-26T08:33:46.518Z,17856.00
2022-07-26T08:34:42.535Z,20576.00
2022-07-26T08:35:42.719Z,39712.00
2022-07-26T08:37:06.991Z,25344.00
2022-07-26T08:37:44.079Z,44640.00
2022-07-26T08:38:43.237Z,64224.00
2022-07-26T08:39:43.409Z,27392.00
2022-07-26T08:40:43.581Z,18816.00
2022-07-26T08:41:43.779Z,15104.00
2022-07-26T08:42:43.919Z,27840.00
2022-07-26T08:43:51.558Z,29568.00
2022-07-26T08:44:45.279Z,63680.00
2022-07-26T08:45:44.451Z,35712.00
2022-07-26T08:46:44.654Z,73536.00
2022-07-26T08:48:07.309Z,68416.00
2022-07-26T08:48:46.037Z,20256.00
2022-07-26T08:49:45.183Z,16256.00
2022-07-26T08:50:45.348Z,11412.00
2022-07-26T08:51:45.533Z,10804.00
2022-07-26T08:52:45.683Z,13708.00
2022-07-26T08:53:45.855Z,12808.00
2022-07-26T08:54:46.028Z,15156.00
2022-07-26T08:56:05.939Z,66816.00
2022-07-26T08:56:47.392Z,15088.00
2022-07-26T08:57:46.545Z,17280.00
2022-07-26T08:58:46.715Z,23168.00
2022-07-26T08:59:46.905Z,48672.00
2022-07-26T09:00:47.140Z,77248.00
2022-07-26T09:01:47.272Z,74624.00
2022-07-26T09:02:47.446Z,74080.00
2022-07-26T09:03:47.700Z,24704.00
2022-07-26T09:04:47.849Z,12588.00
2022-07-26T09:05:47.969Z,11020.00
2022-07-26T09:06:48.125Z,12528.00
2022-07-26T09:07:48.296Z,60416.00
2022-07-26T09:08:48.511Z,24512.00
2022-07-26T09:09:48.678Z,16968.00
2022-07-26T09:10:48.847Z,45504.00
2022-07-26T09:11:49.057Z,28672.00
2022-07-26T09:12:49.207Z,66560.00
2022-07-26T09:13:49.377Z,32128.00
2022-07-26T09:14:49.547Z,55808.00
2022-07-26T09:15:49.773Z,62016.00
2022-07-26T09:16:49.994Z,17280.00
2022-07-26T09:17:50.099Z,10404.00
2022-07-26T09:18:50.271Z,12872.00
2022-07-26T09:19:50.450Z,13800.00
2022-07-26T09:20:50.620Z,42720.00
2022-07-26T09:21:50.810Z,68768.00
2022-07-26T09:22:50.950Z,65696.00
2022-07-26T09:23:51.149Z,62304.00
2022-07-26T09:24:51.322Z,57248.00
2022-07-26T09:25:51.501Z,57472.00
2022-07-26T09:26:51.701Z,57792.00
2022-07-26T09:27:51.838Z,58208.00
2022-07-26T09:28:52.011Z,61632.00
2022-07-26T09:29:52.191Z,62912.00
2022-07-26T09:30:52.410Z,62752.00
2022-07-26T09:31:52.626Z,61600.00
2022-07-26T09:32:57.013Z,65440.00
2022-07-26T09:33:54.052Z,63680.00
2022-07-26T09:34:55.697Z,53792.00
2022-07-26T09:35:54.254Z,70656.00
2022-07-26T09:36:53.427Z,70112.00
2022-07-26T09:37:53.607Z,45024.00
2022-07-26T09:38:53.775Z,25664.00
2022-07-26T09:39:53.956Z,24352.00
2022-07-26T09:40:54.134Z,21408.00
2022-07-26T09:42:17.456Z,30144.00
2022-07-26T09:42:55.484Z,16700.00
2022-07-26T09:43:54.650Z,14208.00
2022-07-26T09:44:54.796Z,13372.00
2022-07-26T09:45:54.966Z,12384.00
2022-07-26T09:46:55.218Z,12792.00
2022-07-26T09:47:55.306Z,12024.00
2022-07-26T09:49:11.805Z,11228.00
2022-07-26T09:49:56.675Z,10520.00
2022-07-26T09:50:55.818Z,9920.00
2022-07-26T09:51:56.039Z,9316.00
2022-07-26T09:52:56.168Z,9956.00
2022-07-26T09:53:56.366Z,11700.00
2022-07-26T09:54:56.527Z,12212.00
2022-07-26T09:55:56.714Z,11164.00
2022-07-26T09:56:56.877Z,10056.00
2022-07-26T09:57:57.026Z,9100.00
2022-07-26T09:58:57.199Z,8256.00
2022-07-26T09:59:57.389Z,7472.00
2022-07-26T10:01:02.096Z,6860.00
2022-07-26T10:01:58.815Z,6320.00
2022-07-26T10:02:57.959Z,5936.00
2022-07-26T10:03:58.097Z,5776.00
2022-07-26T10:04:58.281Z,5776.00
2022-07-26T10:05:58.460Z,5948.00
2022-07-26T10:06:58.629Z,6320.00
2022-07-26T10:07:58.801Z,6780.00
2022-07-26T10:08:58.971Z,7372.00
2022-07-26T10:09:59.161Z,7964.00
2022-07-26T10:10:59.342Z,8860.00
2022-07-26T10:11:59.539Z,10172.00
2022-07-26T10:12:59.692Z,12408.00
2022-07-26T10:13:59.880Z,12584.00
2022-07-26T10:15:00.044Z,12904.00
2022-07-26T10:16:00.261Z,12932.00
2022-07-26T10:17:00.424Z,13364.00
2022-07-26T10:18:00.564Z,14012.00
2022-07-26T10:19:00.873Z,14488.00
2022-07-26T10:20:00.903Z,14512.00
2022-07-26T10:21:01.072Z,14812.00
2022-07-26T10:22:01.272Z,13756.00
2022-07-26T10:23:01.423Z,13668.00
2022-07-26T10:24:01.602Z,14980.00
2022-07-26T10:25:01.790Z,14944.00
2022-07-26T10:26:01.966Z,15604.00
2022-07-26T10:27:02.153Z,17824.00
2022-07-26T10:28:02.325Z,17856.00
2022-07-26T10:29:03.504Z,18784.00
2022-07-26T10:30:02.677Z,18624.00
2022-07-26T10:31:02.875Z,20032.00
2022-07-26T10:32:03.053Z,21568.00
2022-07-26T10:33:03.189Z,21984.00
2022-07-26T10:34:06.779Z,23168.00
2022-07-26T10:35:03.526Z,23488.00
2022-07-26T10:36:03.723Z,21632.00
2022-07-26T10:37:03.896Z,20768.00
2022-07-26T10:38:04.091Z,19456.00
2022-07-26T10:39:04.254Z,18656.00
2022-07-26T10:40:04.435Z,17632.00
2022-07-26T10:41:04.607Z,17440.00
2022-07-26T10:42:04.797Z,16524.00
2022-07-26T10:43:30.146Z,17408.00
2022-07-26T10:44:06.157Z,19264.00
2022-07-26T10:45:05.296Z,18912.00
2022-07-26T10:46:05.531Z,17056.00
2022-07-26T10:47:05.646Z,14336.00
2022-07-26T10:48:05.819Z,11896.00
2022-07-26T10:49:06.021Z,12436.00
2022-07-26T10:50:06.159Z,10660.00
2022-07-26T10:51:06.641Z,9328.00
2022-07-26T10:52:06.499Z,7984.00
2022-07-26T10:53:06.636Z,8624.00
2022-07-26T10:54:06.922Z,8028.00
2022-07-26T10:55:06.981Z,8608.00
2022-07-26T10:56:07.160Z,10368.00
2022-07-26T10:57:07.341Z,11796.00
2022-07-26T10:58:07.501Z,13224.00
2022-07-26T10:59:07.671Z,13696.00
2022-07-26T11:00:07.842Z,14308.00
2022-07-26T11:01:08.108Z,13768.00
2022-07-26T11:02:08.284Z,14020.00
2022-07-26T11:03:08.408Z,13240.00
2022-07-26T11:04:08.964Z,12024.00
2022-07-26T11:05:08.732Z,11076.00
2022-07-26T11:06:08.900Z,10248.00
2022-07-26T11:07:09.073Z,10056.00
2022-07-26T11:08:09.244Z,10448.00
2022-07-26T11:09:09.416Z,10880.00
2022-07-26T11:10:09.620Z,11472.00
2022-07-26T11:11:09.751Z,11544.00
2022-07-26T11:12:09.934Z,13560.00
2022-07-26T11:13:10.113Z,15264.00
2022-07-26T11:14:10.670Z,15996.00
2022-07-26T11:15:10.463Z,16548.00
2022-07-26T11:16:10.684Z,16764.00
2022-07-26T11:17:10.836Z,17056.00
2022-07-26T11:18:10.985Z,16636.00
2022-07-26T11:19:11.156Z,15832.00
2022-07-26T11:20:11.346Z,15884.00
2022-07-26T11:21:11.515Z,17312.00
2022-07-26T11:22:11.726Z,17248.00
2022-07-26T11:23:11.876Z,17120.00
2022-07-26T11:24:12.397Z,16216.00
2022-07-26T11:25:12.226Z,16304.00
2022-07-26T11:26:12.416Z,14924.00
2022-07-26T11:27:12.596Z,15960.00
2022-07-26T11:28:12.776Z,15800.00
2022-07-26T11:29:17.573Z,15280.00
2022-07-26T11:30:14.138Z,15456.00
2022-07-26T11:31:13.298Z,15220.00
2022-07-26T11:32:18.172Z,15848.00
2022-07-26T11:33:14.680Z,16564.00
2022-07-26T11:34:14.263Z,17248.00
2022-07-26T11:35:13.981Z,17696.00
2022-07-26T11:36:14.158Z,18464.00
2022-07-26T11:37:14.370Z,18240.00
2022-07-26T11:38:14.508Z,17632.00
2022-07-26T11:39:14.689Z,16780.00
2022-07-26T11:40:14.865Z,16176.00
2022-07-26T11:41:15.032Z,15460.00
2022-07-26T11:42:15.237Z,14980.00
2022-07-26T11:43:15.405Z,14956.00
2022-07-26T11:44:16.106Z,15028.00
2022-07-26T11:45:15.731Z,14400.00
2022-07-26T11:46:15.961Z,14304.00
2022-07-26T11:47:16.102Z,13956.00
2022-07-26T11:48:16.261Z,13132.00
2022-07-26T11:49:16.504Z,12256.00
2022-07-26T11:50:22.761Z,11860.00
2022-07-26T11:51:17.770Z,11388.00
2022-07-26T11:52:24.937Z,10788.00
2022-07-26T11:53:18.124Z,10660.00
2022-07-26T11:54:17.297Z,9724.00
2022-07-26T11:55:17.472Z,6956.00
2022-07-26T11:56:17.658Z,3952.00
2022-07-26T11:57:17.855Z,3608.00
2022-07-26T11:58:18.033Z,5648.00
2022-07-26T11:59:18.214Z,5168.00
2022-07-26T12:00:18.394Z,4088.00
2022-07-26T12:01:18.596Z,3712.00
2022-07-26T12:02:18.794Z,4100.00
2022-07-26T12:03:18.965Z,4292.00
2022-07-26T12:04:19.249Z,5580.00
2022-07-26T12:05:19.852Z,7624.00
2022-07-26T12:06:19.504Z,9504.00
2022-07-26T12:07:20.128Z,10768.00
2022-07-26T12:08:19.856Z,10384.00
2022-07-26T12:09:20.032Z,12912.00
2022-07-26T12:10:20.196Z,14096.00
2022-07-26T12:11:20.366Z,13088.00
2022-07-26T12:12:20.553Z,10844.00
2022-07-26T12:13:20.703Z,8624.00
2022-07-26T12:14:21.168Z,9556.00